Time;durP1;ratioP1;P1;durP2;ratioP2;P2;SDS_P1;SDS_P2;PMS_P1;PMS_P2;Temp;Humidity;BMP_temperature;BMP_pressure;BME280_temperature;BME280_humidity;BME280_pressure;Samples;Min_cycle;Max_cycle;Signal;HPM_P1;HPM_P2
2024/01/03 00:02:20;;;;;;;;;4.33;2.67;;;;;;;;5071982;28;45370;-77
2024/01/03 00:04:45;;;;;;;;;6.00;2.00;;;;;;;;5061237;28;45323;-78
2024/01/03 00:07:11;;;;;;;;;4.67;2.67;;;;;;;;5078777;28;45225;-78
2024/01/03 00:09:36;;;;;;;;;5.00;4.67;;;;;;;;5079147;28;45413;-78
2024/01/03 00:12:03;;;;;;;;;8.00;6.00;;;;;;;;5061751;28;45300;-80
2024/01/03 00:14:29;;;;;;;;;2.67;2.67;;;;;;;;5083100;28;45334;-78
2024/01/03 00:16:58;;;;;;;;;3.00;2.67;;;;;;;;5082942;28;45568;-78
2024/01/03 00:19:23;;;;;;;;;6.67;2.00;;;;;;;;5063910;28;48108;-78
2024/01/03 00:21:49;;;;;;;;;6.67;5.33;;;;;;;;5064256;28;45273;-78
2024/01/03 00:24:16;;;;;;;;;3.67;2.00;;;;;;;;5064544;28;45525;-78
2024/01/03 00:26:41;;;;;;;;;2.33;2.00;;;;;;;;5082796;28;45366;-78
2024/01/03 00:29:22;;;;;;;;;5.67;5.00;;;;;;;;5082447;28;46185;-79
2024/01/03 00:31:47;;;;;;;;;4.00;2.00;;;;;;;;5082670;28;45280;-78
2024/01/03 00:34:22;;;;;;;;;3.33;3.00;;;;;;;;5082737;28;45282;-78
2024/01/03 00:36:48;;;;;;;;;3.67;3.00;;;;;;;;5082317;28;46137;-77
2024/01/03 00:39:13;;;;;;;;;7.67;4.00;;;;;;;;5064114;28;48451;-78
2024/01/03 00:41:38;;;;;;;;;3.33;2.33;;;;;;;;5064232;28;45672;-78
2024/01/03 00:44:03;;;;;;;;;3.33;3.00;;;;;;;;5064413;28;45224;-80
2024/01/03 00:46:29;;;;;;;;;2.00;1.00;;;;;;;;5082464;28;45605;-78
2024/01/03 00:48:54;;;;;;;;;2.00;2.00;;;;;;;;5082244;28;45369;-78
2024/01/03 00:51:19;;;;;;;;;6.00;4.00;;;;;;;;5081906;28;45285;-79
2024/01/03 00:53:44;;;;;;;;;3.00;2.33;;;;;;;;5064408;28;45263;-78
2024/01/03 00:56:09;;;;;;;;;5.67;4.00;;;;;;;;5082359;28;45211;-79
2024/01/03 00:58:35;;;;;;;;;6.67;2.67;;;;;;;;5100347;27;45420;-77
2024/01/03 01:01:00;;;;;;;;;3.67;2.67;;;;;;;;5084053;27;45339;-78
2024/01/03 01:03:26;;;;;;;;;5.00;4.00;;;;;;;;5101724;27;45452;-77
2024/01/03 01:05:51;;;;;;;;;4.33;3.67;;;;;;;;5102466;27;45524;-78
2024/01/03 01:08:16;;;;;;;;;4.00;4.00;;;;;;;;5102518;27;45564;-78
2024/01/03 01:10:41;;;;;;;;;3.33;2.67;;;;;;;;5102558;27;45283;-78
2024/01/03 01:13:07;;;;;;;;;4.67;3.00;;;;;;;;5102633;27;45351;-78
2024/01/03 01:15:32;;;;;;;;;2.33;1.33;;;;;;;;5102403;27;45315;-78
2024/01/03 01:17:57;;;;;;;;;4.00;4.00;;;;;;;;5102375;27;45945;-79
2024/01/03 01:20:23;;;;;;;;;3.33;3.00;;;;;;;;5102119;27;45472;-78
2024/01/03 01:22:48;;;;;;;;;6.00;3.67;;;;;;;;5101958;27;45554;-77
2024/01/03 01:25:13;;;;;;;;;3.33;3.33;;;;;;;;5083784;27;46869;-78
2024/01/03 01:27:38;;;;;;;;;7.00;3.00;;;;;;;;5102172;27;46382;-78
2024/01/03 01:30:04;;;;;;;;;6.33;3.00;;;;;;;;5102262;27;45454;-78
2024/01/03 01:32:29;;;;;;;;;4.00;3.00;;;;;;;;5102270;27;45494;-78
2024/01/03 01:34:54;;;;;;;;;3.67;2.67;;;;;;;;5052925;28;46482;-78
2024/01/03 01:37:19;;;;;;;;;5.00;5.00;;;;;;;;5061227;28;45296;-77
2024/01/03 01:39:44;;;;;;;;;5.33;4.00;;;;;;;;5061366;28;45395;-78
2024/01/03 01:42:10;;;;;;;;;6.00;5.00;;;;;;;;5077210;28;45410;-78
2024/01/03 01:44:35;;;;;;;;;4.67;4.00;;;;;;;;5081481;28;45324;-78
2024/01/03 01:47:00;;;;;;;;;3.00;3.00;;;;;;;;5081114;28;45685;-78
2024/01/03 01:49:26;;;;;;;;;4.50;2.00;;;;;;;;5081404;28;45418;-79
2024/01/03 01:51:51;;;;;;;;;3.33;2.33;;;;;;;;5062656;28;45479;-78
2024/01/03 01:54:17;;;;;;;;;5.00;4.00;;;;;;;;5063127;28;47373;-78
2024/01/03 01:56:43;;;;;;;;;2.33;2.33;;;;;;;;5065342;27;47297;-78
2024/01/03 01:59:09;;;;;;;;;5.00;4.00;;;;;;;;5073702;27;45274;-78
2024/01/03 02:01:35;;;;;;;;;5.33;4.67;;;;;;;;5042519;28;45316;-78
2024/01/03 02:04:03;;;;;;;;;3.00;3.00;;;;;;;;5060018;28;45481;-78
2024/01/03 02:06:28;;;;;;;;;3.00;2.00;;;;;;;;5060192;28;45447;-78
2024/01/03 02:08:53;;;;;;;;;2.67;1.33;;;;;;;;5060820;28;45355;-79
2024/01/03 02:11:18;;;;;;;;;3.33;2.33;;;;;;;;5042771;28;45359;-79
2024/01/03 02:13:44;;;;;;;;;3.00;3.00;;;;;;;;5060672;28;45691;-78
2024/01/03 02:16:09;;;;;;;;;4.00;3.00;;;;;;;;5060834;28;46339;-78
2024/01/03 02:18:34;;;;;;;;;2.00;0.67;;;;;;;;5060468;28;45343;-78
2024/01/03 02:21:00;;;;;;;;;3.67;2.00;;;;;;;;5060678;28;45329;-79
2024/01/03 02:23:25;;;;;;;;;5.33;5.33;;;;;;;;5042258;28;46477;-78
2024/01/03 02:25:50;;;;;;;;;3.00;3.00;;;;;;;;5060694;28;45427;-79
2024/01/03 02:28:16;;;;;;;;;2.33;2.00;;;;;;;;5060429;28;45280;-78
2024/01/03 02:30:44;;;;;;;;;4.33;3.00;;;;;;;;5042470;28;45423;-78
2024/01/03 02:33:09;;;;;;;;;6.00;4.00;;;;;;;;5077243;28;45495;-78
2024/01/03 02:35:35;;;;;;;;;7.00;6.33;;;;;;;;5079368;28;46184;-77
2024/01/03 02:38:00;;;;;;;;;3.00;2.00;;;;;;;;5080789;28;45268;-77
2024/01/03 02:40:25;;;;;;;;;6.00;3.33;;;;;;;;5080926;28;45386;-80
2024/01/03 02:42:50;;;;;;;;;4.00;4.00;;;;;;;;5080669;28;45573;-79
2024/01/03 02:45:15;;;;;;;;;6.00;3.33;;;;;;;;5080668;28;45591;-78
2024/01/03 02:47:40;;;;;;;;;5.00;3.67;;;;;;;;5062368;28;45305;-78
2024/01/03 02:50:06;;;;;;;;;5.33;3.33;;;;;;;;5062046;28;45259;-78
2024/01/03 02:52:34;;;;;;;;;5.00;3.67;;;;;;;;5061908;28;47619;-78
2024/01/03 02:54:59;;;;;;;;;7.00;3.00;;;;;;;;5062144;28;47764;-79
2024/01/03 02:57:25;;;;;;;;;4.00;3.00;;;;;;;;5088634;27;45405;-77
2024/01/03 02:59:50;;;;;;;;;3.67;3.67;;;;;;;;5082571;27;45295;-78
2024/01/03 03:02:15;;;;;;;;;5.00;3.67;;;;;;;;5100821;27;45384;-78
2024/01/03 03:04:41;;;;;;;;;2.33;1.00;;;;;;;;5082191;27;47366;-77
2024/01/03 03:07:06;;;;;;;;;6.33;4.67;;;;;;;;5100611;27;45275;-78
2024/01/03 03:09:31;;;;;;;;;5.67;4.00;;;;;;;;5100781;27;45310;-78
2024/01/03 03:11:56;;;;;;;;;4.00;4.00;;;;;;;;5100672;27;45255;-78
2024/01/03 03:14:22;;;;;;;;;4.00;3.33;;;;;;;;5082123;27;48390;-78
2024/01/03 03:16:47;;;;;;;;;6.67;4.67;;;;;;;;5100616;27;45164;-77
2024/01/03 03:19:12;;;;;;;;;4.33;4.33;;;;;;;;5081966;27;45542;-77
2024/01/03 03:21:37;;;;;;;;;6.00;4.67;;;;;;;;5100307;27;45558;-77
2024/01/03 03:24:02;;;;;;;;;6.67;4.33;;;;;;;;5100440;27;45676;-77
2024/01/03 03:26:27;;;;;;;;;5.00;4.67;;;;;;;;5100535;27;45310;-78
2024/01/03 03:28:53;;;;;;;;;2.67;2.00;;;;;;;;5090441;27;45304;-78
2024/01/03 03:31:19;;;;;;;;;3.33;3.00;;;;;;;;5061653;28;45502;-77
2024/01/03 03:33:44;;;;;;;;;1.00;0.00;;;;;;;;5079767;28;45455;-78
2024/01/03 03:36:13;;;;;;;;;4.33;4.33;;;;;;;;5079482;28;45255;-77
2024/01/03 03:38:38;;;;;;;;;5.00;4.67;;;;;;;;5079991;28;45362;-77
2024/01/03 03:41:07;;;;;;;;;5.33;3.00;;;;;;;;5079193;28;45437;-77
2024/01/03 03:43:33;;;;;;;;;6.33;3.00;;;;;;;;5078915;28;46564;-78
2024/01/03 03:45:58;;;;;;;;;3.00;3.00;;;;;;;;5079415;28;45142;-79
2024/01/03 03:48:23;;;;;;;;;4.00;3.00;;;;;;;;5079869;28;45303;-78
2024/01/03 03:50:49;;;;;;;;;8.33;5.00;;;;;;;;5079198;28;45449;-78
2024/01/03 03:53:14;;;;;;;;;7.00;5.67;;;;;;;;5079492;28;45489;-78
2024/01/03 03:55:40;;;;;;;;;3.00;2.33;;;;;;;;5079696;28;45381;-79
2024/01/03 03:58:05;;;;;;;;;5.00;4.00;;;;;;;;5093629;27;45390;-80
2024/01/03 04:00:30;;;;;;;;;4.00;4.00;;;;;;;;5081458;27;45972;-79
2024/01/03 04:02:55;;;;;;;;;6.00;3.67;;;;;;;;5099845;27;45216;-79
2024/01/03 04:05:20;;;;;;;;;6.00;4.33;;;;;;;;5099537;27;45310;-78
2024/01/03 04:07:45;;;;;;;;;3.67;3.00;;;;;;;;5100056;27;45495;-80
2024/01/03 04:10:11;;;;;;;;;3.00;2.00;;;;;;;;5099880;27;45426;-78
2024/01/03 04:12:38;;;;;;;;;1.67;1.67;;;;;;;;5099696;27;45498;-81
2024/01/03 04:15:03;;;;;;;;;2.33;2.00;;;;;;;;5081431;27;45770;-78
2024/01/03 04:17:28;;;;;;;;;3.00;3.00;;;;;;;;5081387;27;45285;-80
2024/01/03 04:19:55;;;;;;;;;1.00;1.00;;;;;;;;5081146;27;46409;-79
2024/01/03 04:22:20;;;;;;;;;0.67;0.67;;;;;;;;5099427;27;46186;-78
2024/01/03 04:24:46;;;;;;;;;1.33;1.00;;;;;;;;5099483;27;45468;-77
2024/01/03 04:27:11;;;;;;;;;0.33;0.33;;;;;;;;5099972;27;45256;-79
2024/01/03 04:29:36;;;;;;;;;1.00;1.00;;;;;;;;5099531;27;45560;-77
2024/01/03 04:32:01;;;;;;;;;1.00;0.00;;;;;;;;5099603;27;46495;-81
2024/01/03 04:34:27;;;;;;;;;0.67;0.67;;;;;;;;5099573;27;45224;-78
2024/01/03 04:36:52;;;;;;;;;2.67;2.67;;;;;;;;5081058;27;45520;-78
2024/01/03 04:39:17;;;;;;;;;1.00;0.67;;;;;;;;5080936;27;46762;-80
2024/01/03 04:41:42;;;;;;;;;3.00;2.33;;;;;;;;5080946;27;47917;-77
2024/01/03 04:44:07;;;;;;;;;2.00;2.00;;;;;;;;5099632;27;45283;-78
2024/01/03 04:46:33;;;;;;;;;2.33;2.33;;;;;;;;5099614;27;45287;-78
2024/01/03 04:48:58;;;;;;;;;2.33;2.33;;;;;;;;5099236;27;45263;-80
2024/01/03 04:51:23;;;;;;;;;3.00;2.33;;;;;;;;5080501;27;48418;-78
2024/01/03 04:53:48;;;;;;;;;3.00;3.00;;;;;;;;5099310;27;45150;-79
2024/01/03 04:56:13;;;;;;;;;2.00;2.00;;;;;;;;5081008;27;45375;-79
2024/01/03 04:58:38;;;;;;;;;2.33;2.33;;;;;;;;5081893;27;45523;-78
2024/01/03 05:01:04;;;;;;;;;4.00;3.67;;;;;;;;5082211;28;46581;-78
2024/01/03 05:03:29;;;;;;;;;5.00;2.00;;;;;;;;5082258;28;45185;-78
2024/01/03 05:05:54;;;;;;;;;2.33;1.00;;;;;;;;5082226;28;45422;-78
2024/01/03 05:08:19;;;;;;;;;3.33;2.00;;;;;;;;5063872;28;45931;-78
2024/01/03 05:10:44;;;;;;;;;2.00;2.00;;;;;;;;5063598;28;47362;-78
2024/01/03 05:13:10;;;;;;;;;3.00;3.00;;;;;;;;5082101;28;45390;-81
2024/01/03 05:15:35;;;;;;;;;6.33;4.67;;;;;;;;5063711;28;45252;-78
2024/01/03 05:18:00;;;;;;;;;4.33;3.00;;;;;;;;5063494;28;45818;-78
2024/01/03 05:20:25;;;;;;;;;3.00;2.00;;;;;;;;5081735;28;46291;-78
2024/01/03 05:22:50;;;;;;;;;4.67;4.67;;;;;;;;5063578;28;45282;-78
2024/01/03 05:25:15;;;;;;;;;5.33;3.00;;;;;;;;5081846;28;45211;-78
2024/01/03 05:27:41;;;;;;;;;5.00;3.00;;;;;;;;5081948;28;45493;-79
2024/01/03 05:30:06;;;;;;;;;4.00;3.00;;;;;;;;5063336;28;48017;-78
2024/01/03 05:32:31;;;;;;;;;4.00;3.00;;;;;;;;5081719;28;45291;-78
2024/01/03 05:34:56;;;;;;;;;1.67;1.67;;;;;;;;5081882;28;45492;-77
2024/01/03 05:37:22;;;;;;;;;3.00;3.00;;;;;;;;5063038;28;45277;-79
2024/01/03 05:39:47;;;;;;;;;2.00;2.00;;;;;;;;5063178;28;47311;-80
2024/01/03 05:42:12;;;;;;;;;3.33;3.00;;;;;;;;5063462;28;45347;-77
2024/01/03 05:44:37;;;;;;;;;1.00;1.00;;;;;;;;5063485;28;45272;-78
2024/01/03 05:47:04;;;;;;;;;2.00;2.00;;;;;;;;5081655;28;45249;-77
2024/01/03 05:49:29;;;;;;;;;3.00;2.33;;;;;;;;5062952;28;47981;-77
2024/01/03 05:51:54;;;;;;;;;2.67;2.67;;;;;;;;5080916;28;45343;-77
2024/01/03 05:54:20;;;;;;;;;2.33;2.33;;;;;;;;5081612;28;45395;-76
2024/01/03 05:56:45;;;;;;;;;2.33;1.00;;;;;;;;5084216;27;45289;-77
2024/01/03 05:59:10;;;;;;;;;3.00;3.00;;;;;;;;5101834;27;46402;-78
2024/01/03 06:01:35;;;;;;;;;2.67;1.67;;;;;;;;5083040;27;45331;-77
2024/01/03 06:04:00;;;;;;;;;5.00;4.00;;;;;;;;5101647;27;45330;-77
2024/01/03 06:06:25;;;;;;;;;2.00;2.00;;;;;;;;5101532;27;45334;-77
2024/01/03 06:08:51;;;;;;;;;5.00;2.67;;;;;;;;5085660;27;45333;-78
2024/01/03 06:11:16;;;;;;;;;2.00;2.00;;;;;;;;5080932;28;45335;-78
2024/01/03 06:13:42;;;;;;;;;2.00;2.00;;;;;;;;5061678;28;45346;-79
2024/01/03 06:16:08;;;;;;;;;1.00;1.00;;;;;;;;5080610;28;45482;-78
2024/01/03 06:18:33;;;;;;;;;6.00;3.00;;;;;;;;5080585;28;45422;-78
2024/01/03 06:20:59;;;;;;;;;3.33;1.33;;;;;;;;5080707;28;45148;-77
2024/01/03 06:23:24;;;;;;;;;2.00;1.00;;;;;;;;5062539;28;45198;-77
2024/01/03 06:25:49;;;;;;;;;2.33;2.33;;;;;;;;5080799;28;45284;-78
2024/01/03 06:28:14;;;;;;;;;3.67;2.00;;;;;;;;5080511;28;46295;-77
2024/01/03 06:30:40;;;;;;;;;3.00;1.67;;;;;;;;5061235;28;45252;-77
2024/01/03 06:33:06;;;;;;;;;2.33;1.00;;;;;;;;5066494;28;45209;-76
2024/01/03 06:35:32;;;;;;;;;4.00;3.00;;;;;;;;5051679;28;45935;-79
2024/01/03 06:37:57;;;;;;;;;3.33;3.00;;;;;;;;5070262;28;45391;-77
2024/01/03 06:40:22;;;;;;;;;3.00;1.00;;;;;;;;5068797;28;45413;-80
2024/01/03 06:42:48;;;;;;;;;3.00;2.00;;;;;;;;5071824;28;45326;-77
2024/01/03 06:45:13;;;;;;;;;3.00;1.00;;;;;;;;5062376;28;45938;-77
2024/01/03 06:47:40;;;;;;;;;1.67;1.67;;;;;;;;5065721;28;46189;-77
2024/01/03 06:50:05;;;;;;;;;4.67;3.00;;;;;;;;5059809;28;45449;-79
2024/01/03 06:52:30;;;;;;;;;2.00;2.00;;;;;;;;5060144;28;45308;-78
2024/01/03 06:54:57;;;;;;;;;5.00;5.00;;;;;;;;5060001;28;45186;-78
2024/01/03 06:57:22;;;;;;;;;4.67;3.33;;;;;;;;5076116;27;45339;-78
2024/01/03 06:59:47;;;;;;;;;3.33;3.33;;;;;;;;5100849;27;45293;-77
2024/01/03 07:02:12;;;;;;;;;7.33;5.33;;;;;;;;5100823;27;45458;-77
2024/01/03 07:04:37;;;;;;;;;4.00;3.33;;;;;;;;5100695;27;45470;-77
2024/01/03 07:07:03;;;;;;;;;2.00;1.00;;;;;;;;5100527;27;45271;-75
2024/01/03 07:09:28;;;;;;;;;3.00;2.00;;;;;;;;5082906;27;45355;-76
2024/01/03 07:11:53;;;;;;;;;4.67;3.00;;;;;;;;5041638;28;45233;-76
2024/01/03 07:14:18;;;;;;;;;1.00;1.00;;;;;;;;5059970;28;45193;-75
2024/01/03 07:16:43;;;;;;;;;3.67;3.67;;;;;;;;5059911;28;45448;-76
2024/01/03 07:19:08;;;;;;;;;3.33;3.33;;;;;;;;5059452;28;45166;-77
2024/01/03 07:21:34;;;;;;;;;3.33;1.33;;;;;;;;5058716;28;45444;-76
2024/01/03 07:23:59;;;;;;;;;4.33;4.33;;;;;;;;5058863;28;45370;-75
2024/01/03 07:26:24;;;;;;;;;4.00;3.00;;;;;;;;5041627;28;48634;-77
2024/01/03 07:28:49;;;;;;;;;3.00;3.00;;;;;;;;5059763;28;45323;-77
2024/01/03 07:31:14;;;;;;;;;3.67;2.00;;;;;;;;5059744;28;45161;-76
2024/01/03 07:33:40;;;;;;;;;4.67;4.67;;;;;;;;5059465;28;45305;-76
2024/01/03 07:36:05;;;;;;;;;4.33;3.00;;;;;;;;5059396;28;46477;-76
2024/01/03 07:38:30;;;;;;;;;5.33;4.00;;;;;;;;5059496;28;45234;-76
2024/01/03 07:40:56;;;;;;;;;3.00;3.00;;;;;;;;5059588;28;45544;-76
2024/01/03 07:43:21;;;;;;;;;6.00;4.33;;;;;;;;5041037;28;45482;-76
2024/01/03 07:45:46;;;;;;;;;6.00;4.67;;;;;;;;5041307;28;47659;-75
2024/01/03 07:48:11;;;;;;;;;4.67;3.67;;;;;;;;5077375;28;45426;-76
2024/01/03 07:50:36;;;;;;;;;4.00;2.00;;;;;;;;5079038;28;45312;-78
2024/01/03 07:53:02;;;;;;;;;5.00;4.00;;;;;;;;5079420;28;45613;-78
2024/01/03 07:55:27;;;;;;;;;4.33;3.33;;;;;;;;5060656;28;47564;-75
2024/01/03 07:57:53;;;;;;;;;6.33;4.00;;;;;;;;5091757;27;45326;-75
2024/01/03 08:00:18;;;;;;;;;2.00;1.33;;;;;;;;5100078;27;45246;-75
2024/01/03 08:02:43;;;;;;;;;3.67;3.00;;;;;;;;5099887;27;45532;-75
2024/01/03 08:05:09;;;;;;;;;4.33;3.33;;;;;;;;5099500;27;46648;-76
2024/01/03 08:07:34;;;;;;;;;3.67;2.33;;;;;;;;5097563;27;45343;-75
2024/01/03 08:10:00;;;;;;;;;7.33;5.00;;;;;;;;5049977;28;45513;-76
2024/01/03 08:12:25;;;;;;;;;7.33;6.33;;;;;;;;5067347;28;45309;-77
2024/01/03 08:14:50;;;;;;;;;5.67;2.67;;;;;;;;5050631;28;47458;-78
2024/01/03 08:17:15;;;;;;;;;6.67;5.00;;;;;;;;5068813;28;45295;-79
2024/01/03 08:19:40;;;;;;;;;4.00;4.00;;;;;;;;5062096;28;45418;-78
2024/01/03 08:22:06;;;;;;;;;5.00;2.67;;;;;;;;5066068;28;45694;-76
2024/01/03 08:24:31;;;;;;;;;3.00;3.00;;;;;;;;5067583;28;46010;-77
2024/01/03 08:26:57;;;;;;;;;3.00;3.00;;;;;;;;5076957;28;45605;-78
2024/01/03 08:29:22;;;;;;;;;4.00;3.00;;;;;;;;5058489;28;45404;-78
2024/01/03 08:31:48;;;;;;;;;6.33;5.00;;;;;;;;5076437;28;45313;-76
2024/01/03 08:34:14;;;;;;;;;6.00;2.67;;;;;;;;5076814;27;46557;-76
2024/01/03 08:36:40;;;;;;;;;3.67;3.33;;;;;;;;5078042;28;45358;-77
2024/01/03 08:39:05;;;;;;;;;2.00;2.00;;;;;;;;5078388;27;45407;-76
2024/01/03 08:41:30;;;;;;;;;1.00;1.00;;;;;;;;5079695;27;45545;-77
2024/01/03 08:43:57;;;;;;;;;7.00;5.00;;;;;;;;5089152;27;45377;-76
2024/01/03 08:46:22;;;;;;;;;5.00;5.00;;;;;;;;5084392;27;46123;-77
2024/01/03 08:48:47;;;;;;;;;6.67;6.67;;;;;;;;5102518;27;45486;-75
2024/01/03 08:51:13;;;;;;;;;6.00;5.00;;;;;;;;5082678;27;45314;-75
2024/01/03 08:53:38;;;;;;;;;4.33;4.33;;;;;;;;5066181;27;45370;-76
2024/01/03 08:56:11;;;;;;;;;2.00;2.00;;;;;;;;5081707;28;45383;-77
2024/01/03 08:58:36;;;;;;;;;3.00;3.00;;;;;;;;5082047;27;45452;-78
2024/01/03 09:01:01;;;;;;;;;3.67;2.67;;;;;;;;5087078;27;45267;-76
2024/01/03 09:03:26;;;;;;;;;3.33;3.33;;;;;;;;5061664;28;45553;-77
2024/01/03 09:05:52;;;;;;;;;3.00;3.00;;;;;;;;5064520;27;45384;-77
2024/01/03 09:08:17;;;;;;;;;5.00;5.00;;;;;;;;5079615;28;45398;-77
2024/01/03 09:10:42;;;;;;;;;9.00;5.67;;;;;;;;5081185;28;45430;-78
2024/01/03 09:13:08;;;;;;;;;4.67;3.00;;;;;;;;5081187;27;46147;-79
2024/01/03 09:15:33;;;;;;;;;8.33;6.67;;;;;;;;5063510;28;45389;-76
2024/01/03 09:17:58;;;;;;;;;7.00;6.00;;;;;;;;5075046;28;45628;-76
2024/01/03 09:20:24;;;;;;;;;7.67;6.00;;;;;;;;5045557;28;46354;-76
2024/01/03 09:22:50;;;;;;;;;6.00;5.00;;;;;;;;5069840;28;46007;-76
2024/01/03 09:25:15;;;;;;;;;5.00;4.33;;;;;;;;5064398;28;45303;-76
2024/01/03 09:27:41;;;;;;;;;6.33;5.00;;;;;;;;5050524;28;45558;-77
2024/01/03 09:30:06;;;;;;;;;5.33;4.00;;;;;;;;5062976;28;45347;-76
2024/01/03 09:32:31;;;;;;;;;3.00;3.00;;;;;;;;5043810;28;48503;-78
2024/01/03 09:34:57;;;;;;;;;5.33;4.00;;;;;;;;5060232;28;45351;-75
2024/01/03 09:37:22;;;;;;;;;5.67;5.67;;;;;;;;5060909;28;45375;-76
2024/01/03 09:39:47;;;;;;;;;8.67;7.33;;;;;;;;5060380;28;45273;-75
2024/01/03 09:42:13;;;;;;;;;6.00;5.67;;;;;;;;5072005;28;46076;-77
2024/01/03 09:44:38;;;;;;;;;5.00;4.00;;;;;;;;5062216;28;45308;-76
2024/01/03 09:47:03;;;;;;;;;6.00;3.67;;;;;;;;5081053;28;45378;-76
2024/01/03 09:49:28;;;;;;;;;4.67;3.33;;;;;;;;5068203;28;45298;-77
2024/01/03 09:51:54;;;;;;;;;5.00;4.67;;;;;;;;5069917;28;45514;-76
2024/01/03 09:54:20;;;;;;;;;6.00;5.00;;;;;;;;5078022;28;45351;-75
2024/01/03 09:56:47;;;;;;;;;7.33;6.67;;;;;;;;5083299;27;45730;-78
2024/01/03 09:59:12;;;;;;;;;5.67;3.67;;;;;;;;5082572;27;46235;-77
2024/01/03 10:01:38;;;;;;;;;6.00;5.67;;;;;;;;5100957;27;46395;-76
2024/01/03 10:04:04;;;;;;;;;4.67;3.33;;;;;;;;5100341;27;45355;-76
2024/01/03 10:06:31;;;;;;;;;7.00;5.00;;;;;;;;5101178;27;45468;-78
2024/01/03 10:08:58;;;;;;;;;6.00;5.33;;;;;;;;5066612;28;46319;-77
2024/01/03 10:11:23;;;;;;;;;4.00;2.33;;;;;;;;5044085;28;47214;-77
2024/01/03 10:13:50;;;;;;;;;5.67;3.67;;;;;;;;5059482;28;45237;-77
2024/01/03 10:16:22;;;;;;;;;4.33;4.33;;;;;;;;5045713;28;45383;-77
2024/01/03 10:18:47;;;;;;;;;4.33;4.00;;;;;;;;5078609;28;45830;-77
2024/01/03 10:21:13;;;;;;;;;3.00;3.00;;;;;;;;5061679;28;47135;-77
2024/01/03 10:23:38;;;;;;;;;7.67;4.67;;;;;;;;5061401;28;45413;-77
2024/01/03 10:26:03;;;;;;;;;4.33;3.33;;;;;;;;5040701;28;45265;-78
2024/01/03 10:28:28;;;;;;;;;6.33;4.00;;;;;;;;5070146;28;45421;-76
2024/01/03 10:30:53;;;;;;;;;4.33;4.33;;;;;;;;5074624;27;45897;-78
2024/01/03 10:33:20;;;;;;;;;4.00;4.00;;;;;;;;5079494;28;45542;-76
2024/01/03 10:35:45;;;;;;;;;3.67;3.33;;;;;;;;5061995;27;45373;-76
2024/01/03 10:38:13;;;;;;;;;6.67;5.33;;;;;;;;5066627;27;45390;-78
2024/01/03 10:40:39;;;;;;;;;3.00;3.00;;;;;;;;5077720;27;45749;-76
2024/01/03 10:43:07;;;;;;;;;4.67;3.00;;;;;;;;5078230;27;45358;-77
2024/01/03 10:45:33;;;;;;;;;4.67;4.67;;;;;;;;5076755;27;45280;-76
2024/01/03 10:47:58;;;;;;;;;6.00;3.67;;;;;;;;5078002;27;45342;-76
2024/01/03 10:50:23;;;;;;;;;10.00;6.00;;;;;;;;5077416;28;45514;-77
2024/01/03 10:52:52;;;;;;;;;8.67;6.00;;;;;;;;5059450;28;45343;-76
2024/01/03 10:55:24;;;;;;;;;4.00;3.00;;;;;;;;5078670;28;45590;-78
2024/01/03 10:58:00;;;;;;;;;3.67;3.67;;;;;;;;5090424;27;45489;-75
2024/01/03 11:00:34;;;;;;;;;5.33;3.00;;;;;;;;5099041;27;45370;-77
2024/01/03 11:03:05;;;;;;;;;5.00;3.67;;;;;;;;5098629;27;45299;-75
2024/01/03 11:05:50;;;;;;;;;4.67;4.33;;;;;;;;5099986;27;45344;-75
2024/01/03 11:08:19;;;;;;;;;6.33;3.67;;;;;;;;5099803;27;45296;-75
2024/01/03 11:10:49;;;;;;;;;5.33;5.33;;;;;;;;5099574;27;45417;-75
2024/01/03 11:13:27;;;;;;;;;6.67;4.67;;;;;;;;5100037;27;45444;-75
2024/01/03 11:15:55;;;;;;;;;3.00;3.00;;;;;;;;5100638;27;45264;-76
2024/01/03 11:18:39;;;;;;;;;5.33;5.00;;;;;;;;5097777;27;45277;-75
2024/01/03 11:21:27;;;;;;;;;5.00;5.00;;;;;;;;5077697;28;45457;-74
2024/01/03 11:23:53;;;;;;;;;5.67;3.33;;;;;;;;5076930;28;45447;-77
2024/01/03 11:26:18;;;;;;;;;4.67;4.67;;;;;;;;5059530;28;45756;-76
2024/01/03 11:28:49;;;;;;;;;5.67;3.00;;;;;;;;5078078;28;45359;-75
2024/01/03 11:31:35;;;;;;;;;7.67;6.00;;;;;;;;5078037;28;45875;-75
2024/01/03 11:34:00;;;;;;;;;5.67;4.00;;;;;;;;5077500;28;45610;-80
2024/01/03 11:36:44;;;;;;;;;6.00;5.00;;;;;;;;5078118;28;45339;-75
2024/01/03 11:39:29;;;;;;;;;7.00;5.67;;;;;;;;5076012;27;45346;-77
2024/01/03 11:41:54;;;;;;;;;5.00;1.67;;;;;;;;5059750;28;47169;-75
2024/01/03 11:44:20;;;;;;;;;3.67;2.67;;;;;;;;5078262;28;45349;-75
2024/01/03 11:46:45;;;;;;;;;6.33;4.33;;;;;;;;5079588;28;45292;-76
2024/01/03 11:49:10;;;;;;;;;7.00;4.67;;;;;;;;5079613;28;45253;-76
2024/01/03 11:51:36;;;;;;;;;4.33;1.33;;;;;;;;5078942;28;46077;-76
2024/01/03 11:54:01;;;;;;;;;3.00;3.00;;;;;;;;5079479;28;45284;-76
2024/01/03 11:56:34;;;;;;;;;4.00;2.33;;;;;;;;5061083;27;45464;-75
2024/01/03 11:59:00;;;;;;;;;5.67;2.33;;;;;;;;5099705;27;46046;-75
2024/01/03 12:01:25;;;;;;;;;4.67;2.67;;;;;;;;5098589;27;46366;-75
2024/01/03 12:04:06;;;;;;;;;3.67;3.67;;;;;;;;5099614;27;45215;-78
2024/01/03 12:06:31;;;;;;;;;2.00;1.33;;;;;;;;5081568;27;45298;-75
2024/01/03 12:08:56;;;;;;;;;3.33;2.67;;;;;;;;5103103;27;45755;-77
2024/01/03 12:11:22;;;;;;;;;5.33;2.33;;;;;;;;5068269;28;45775;-76
2024/01/03 12:13:50;;;;;;;;;0.33;0.33;;;;;;;;5082827;28;45152;-77
2024/01/03 12:16:15;;;;;;;;;4.33;2.00;;;;;;;;5082529;28;45459;-76
2024/01/03 12:18:50;;;;;;;;;6.33;3.00;;;;;;;;5082362;28;45287;-76
2024/01/03 12:21:16;;;;;;;;;3.00;2.33;;;;;;;;5082418;28;45292;-78
2024/01/03 12:23:53;;;;;;;;;3.00;2.00;;;;;;;;5064314;28;46263;-76
2024/01/03 12:26:18;;;;;;;;;5.67;3.33;;;;;;;;5064339;28;45406;-77
2024/01/03 12:28:43;;;;;;;;;4.75;3.75;;;;;;;;5064054;28;47029;-75
2024/01/03 12:31:18;;;;;;;;;4.00;3.00;;;;;;;;5082562;28;46210;-76
2024/01/03 12:33:43;;;;;;;;;3.67;1.33;;;;;;;;5082503;28;45401;-77
2024/01/03 12:36:09;;;;;;;;;5.00;5.00;;;;;;;;5082631;28;45245;-77
2024/01/03 12:38:34;;;;;;;;;5.67;5.67;;;;;;;;5059639;28;47095;-75
2024/01/03 12:40:59;;;;;;;;;4.00;2.00;;;;;;;;5046263;28;47396;-77
2024/01/03 12:43:24;;;;;;;;;4.00;4.00;;;;;;;;5070504;28;45426;-75
2024/01/03 12:45:49;;;;;;;;;5.67;4.33;;;;;;;;5072841;28;45314;-75
2024/01/03 12:48:15;;;;;;;;;4.33;4.00;;;;;;;;5070922;28;45297;-75
2024/01/03 12:50:41;;;;;;;;;2.00;2.00;;;;;;;;5070647;28;45272;-75
2024/01/03 12:53:07;;;;;;;;;3.67;3.67;;;;;;;;5061793;28;45286;-75
2024/01/03 12:55:32;;;;;;;;;4.00;3.00;;;;;;;;5061769;28;45328;-76
2024/01/03 12:57:57;;;;;;;;;1.33;1.33;;;;;;;;5087970;27;45273;-76
2024/01/03 13:00:23;;;;;;;;;3.67;2.00;;;;;;;;5102592;27;45581;-79
2024/01/03 13:02:48;;;;;;;;;3.33;2.67;;;;;;;;5084205;27;45738;-78
2024/01/03 13:05:13;;;;;;;;;5.67;2.67;;;;;;;;5102391;27;45278;-78
2024/01/03 13:07:38;;;;;;;;;2.67;1.67;;;;;;;;5084163;27;47196;-78
2024/01/03 13:10:04;;;;;;;;;6.00;2.67;;;;;;;;5083436;27;46590;-78
2024/01/03 13:12:29;;;;;;;;;2.00;2.00;;;;;;;;5082206;28;45221;-80
2024/01/03 13:14:54;;;;;;;;;6.00;3.00;;;;;;;;5063736;28;45229;-81
2024/01/03 13:17:22;;;;;;;;;1.00;1.00;;;;;;;;5063665;28;46021;-77
2024/01/03 13:19:48;;;;;;;;;0.33;0.33;;;;;;;;5081020;28;45347;-77
2024/01/03 13:22:13;;;;;;;;;3.00;3.00;;;;;;;;5081900;28;45437;-80
2024/01/03 13:24:40;;;;;;;;;4.33;3.00;;;;;;;;5082312;28;45473;-81
2024/01/03 13:27:05;;;;;;;;;3.00;3.00;;;;;;;;5081738;28;45453;-76
2024/01/03 13:29:32;;;;;;;;;4.67;2.00;;;;;;;;5081425;28;45923;-77
2024/01/03 13:31:57;;;;;;;;;1.33;1.00;;;;;;;;5081821;28;45807;-81
2024/01/03 13:34:22;;;;;;;;;1.67;1.67;;;;;;;;5063478;28;45433;-76
2024/01/03 13:36:47;;;;;;;;;1.00;0.00;;;;;;;;5081182;28;45565;-77
2024/01/03 13:39:13;;;;;;;;;0.67;0.00;;;;;;;;5081428;28;45346;-77
2024/01/03 13:41:38;;;;;;;;;1.00;0.67;;;;;;;;5081418;28;45272;-78
2024/01/03 13:44:03;;;;;;;;;1.00;1.00;;;;;;;;5057338;28;45249;-80
2024/01/03 13:46:29;;;;;;;;;0.33;0.00;;;;;;;;5061139;28;45477;-78
2024/01/03 13:48:54;;;;;;;;;1.00;0.00;;;;;;;;5042786;28;46946;-76
2024/01/03 13:51:22;;;;;;;;;1.00;0.00;;;;;;;;5059660;28;45488;-78
2024/01/03 13:53:47;;;;;;;;;0.00;0.00;;;;;;;;5058615;28;45498;-78
2024/01/03 13:56:13;;;;;;;;;1.00;1.00;;;;;;;;5071491;28;45692;-76
2024/01/03 13:58:38;;;;;;;;;0.00;0.00;;;;;;;;5068847;28;46389;-76
2024/01/03 14:01:04;;;;;;;;;2.00;0.00;;;;;;;;5080899;28;45330;-78
2024/01/03 14:03:29;;;;;;;;;2.00;2.00;;;;;;;;5080311;28;45583;-75
2024/01/03 14:05:54;;;;;;;;;0.33;0.33;;;;;;;;5063424;28;46069;-76
2024/01/03 14:08:19;;;;;;;;;0.00;0.00;;;;;;;;5060567;28;46459;-76
2024/01/03 14:10:45;;;;;;;;;1.00;1.00;;;;;;;;5043488;28;45921;-78
2024/01/03 14:13:10;;;;;;;;;0.00;0.00;;;;;;;;5081284;28;45464;-76
2024/01/03 14:15:36;;;;;;;;;1.67;0.00;;;;;;;;5080630;28;45473;-76
2024/01/03 14:18:01;;;;;;;;;0.67;0.67;;;;;;;;5058843;28;48197;-76
2024/01/03 14:20:27;;;;;;;;;2.00;2.00;;;;;;;;5079250;28;45387;-76
2024/01/03 14:22:53;;;;;;;;;1.00;1.00;;;;;;;;5073261;28;45453;-76
2024/01/03 14:25:21;;;;;;;;;2.00;1.33;;;;;;;;5052748;28;46346;-77
2024/01/03 14:27:46;;;;;;;;;1.00;1.00;;;;;;;;5069201;28;45341;-77
2024/01/03 14:30:16;;;;;;;;;1.67;1.00;;;;;;;;5051025;28;45514;-76
2024/01/03 14:32:42;;;;;;;;;0.00;0.00;;;;;;;;5051301;28;45301;-75
2024/01/03 14:35:08;;;;;;;;;0.00;0.00;;;;;;;;5071238;28;45312;-75
2024/01/03 14:37:33;;;;;;;;;1.00;1.00;;;;;;;;5053471;28;47012;-76